Time;durP1;ratioP1;P1;durP2;ratioP2;P2;SDS_P1;SDS_P2;PMS_P1;PMS_P2;Temp;Humidity;BMP_temperature;BMP_pressure;BME280_temperature;BME280_humidity;BME280_pressure;Samples;Min_cycle;Max_cycle;Signal;HPM_P1;HPM_P2
2021/03/15 00:02:18;;;;;;;5.53;1.52;;;;;;;;;;5004786;28;20041;-59
2021/03/15 00:04:45;;;;;;;11.43;1.70;;;;;;;;;;5001135;28;20053;-58
2021/03/15 00:07:11;;;;;;;5.57;1.40;;;;;;;;;;5001703;28;20042;-60
2021/03/15 00:09:37;;;;;;;10.02;1.55;;;;;;;;;;4990044;28;20069;-59
2021/03/15 00:12:03;;;;;;;4.60;1.15;;;;;;;;;;5001631;28;20120;-60
2021/03/15 00:14:29;;;;;;;10.23;1.50;;;;;;;;;;5001600;28;20058;-61
2021/03/15 00:16:55;;;;;;;6.60;1.27;;;;;;;;;;5015664;28;20053;-60
2021/03/15 00:19:22;;;;;;;7.50;1.30;;;;;;;;;;5021487;28;20034;-60
2021/03/15 00:21:48;;;;;;;6.32;1.27;;;;;;;;;;5002683;28;20045;-59
2021/03/15 00:24:14;;;;;;;5.70;1.50;;;;;;;;;;5002075;28;20124;-60
2021/03/15 00:26:40;;;;;;;7.40;1.65;;;;;;;;;;5012022;28;20053;-60
2021/03/15 00:29:06;;;;;;;4.70;1.23;;;;;;;;;;5022553;28;20040;-59
2021/03/15 00:31:32;;;;;;;4.68;1.13;;;;;;;;;;5016513;28;20065;-60
2021/03/15 00:34:01;;;;;;;7.50;1.10;;;;;;;;;;5003642;28;20057;-60
2021/03/15 00:36:30;;;;;;;3.35;0.88;;;;;;;;;;5006256;28;20049;-59
2021/03/15 00:38:56;;;;;;;3.22;1.00;;;;;;;;;;5021852;28;20038;-60
2021/03/15 00:41:22;;;;;;;3.75;1.08;;;;;;;;;;5012718;28;20046;-61
2021/03/15 00:43:48;;;;;;;7.25;1.10;;;;;;;;;;4991898;28;20117;-60
2021/03/15 00:46:14;;;;;;;8.88;1.42;;;;;;;;;;5015138;28;20062;-60
2021/03/15 00:48:41;;;;;;;3.22;1.20;;;;;;;;;;5023178;28;20049;-61
2021/03/15 00:51:07;;;;;;;2.15;0.93;;;;;;;;;;5017283;28;20050;-59
2021/03/15 00:53:34;;;;;;;6.13;1.10;;;;;;;;;;5003026;28;20056;-60
2021/03/15 00:56:00;;;;;;;4.35;1.08;;;;;;;;;;5002673;28;20042;-60
2021/03/15 00:58:26;;;;;;;4.95;1.40;;;;;;;;;;5000101;28;20042;-59
2021/03/15 01:00:52;;;;;;;3.22;1.10;;;;;;;;;;5004172;28;20052;-60
2021/03/15 01:03:18;;;;;;;10.90;1.10;;;;;;;;;;4995358;28;20042;-59
2021/03/15 01:05:45;;;;;;;3.30;1.10;;;;;;;;;;5012659;28;20057;-59
2021/03/15 01:08:12;;;;;;;3.15;1.52;;;;;;;;;;5025472;28;20045;-60
2021/03/15 01:10:39;;;;;;;4.85;1.13;;;;;;;;;;5040885;28;20123;-60
2021/03/15 01:13:06;;;;;;;4.38;1.10;;;;;;;;;;5024410;28;20061;-60
2021/03/15 01:15:32;;;;;;;6.10;1.00;;;;;;;;;;5021586;28;20119;-60
2021/03/15 01:17:58;;;;;;;4.43;0.90;;;;;;;;;;5025484;28;20115;-59
2021/03/15 01:20:24;;;;;;;3.25;0.93;;;;;;;;;;5043201;28;20040;-60
2021/03/15 01:22:51;;;;;;;4.13;1.30;;;;;;;;;;5032014;28;20104;-60
2021/03/15 01:25:18;;;;;;;5.60;1.20;;;;;;;;;;5022057;28;20041;-60
2021/03/15 01:27:45;;;;;;;3.92;1.05;;;;;;;;;;5020524;28;20050;-60
2021/03/15 01:30:13;;;;;;;3.80;1.20;;;;;;;;;;5041179;28;20034;-60
2021/03/15 01:32:39;;;;;;;2.88;0.90;;;;;;;;;;5037915;28;20111;-59
2021/03/15 01:35:07;;;;;;;9.70;1.30;;;;;;;;;;5019824;28;20053;-60
2021/03/15 01:37:33;;;;;;;1.63;0.93;;;;;;;;;;5020708;28;20610;-59
2021/03/15 01:39:59;;;;;;;2.97;1.10;;;;;;;;;;5017821;28;20123;-59
2021/03/15 01:42:26;;;;;;;3.05;1.00;;;;;;;;;;5021581;28;20070;-60
2021/03/15 01:44:53;;;;;;;3.80;1.10;;;;;;;;;;5021646;28;20053;-60
2021/03/15 01:47:20;;;;;;;3.65;0.95;;;;;;;;;;5040302;28;20037;-60
2021/03/15 01:49:49;;;;;;;2.92;0.90;;;;;;;;;;5026309;28;20176;-60
2021/03/15 01:52:15;;;;;;;2.88;0.90;;;;;;;;;;5021596;28;20038;-59
2021/03/15 01:54:41;;;;;;;3.47;1.20;;;;;;;;;;5017981;28;20130;-60
2021/03/15 01:57:07;;;;;;;2.72;1.00;;;;;;;;;;5020325;28;20064;-60
2021/03/15 01:59:33;;;;;;;7.00;1.15;;;;;;;;;;5016524;28;20164;-59
2021/03/15 02:02:00;;;;;;;6.07;1.20;;;;;;;;;;5020500;28;20173;-58
2021/03/15 02:04:26;;;;;;;1.88;0.93;;;;;;;;;;5020431;28;20630;-59
2021/03/15 02:06:53;;;;;;;4.07;1.00;;;;;;;;;;5022700;28;20151;-60
2021/03/15 02:09:19;;;;;;;4.57;1.20;;;;;;;;;;5020603;28;20065;-60
2021/03/15 02:11:49;;;;;;;2.40;1.27;;;;;;;;;;5022709;28;20491;-60
2021/03/15 02:14:20;;;;;;;6.05;1.35;;;;;;;;;;5023504;28;20068;-59
2021/03/15 02:16:51;;;;;;;2.88;1.10;;;;;;;;;;5027342;28;20066;-59
2021/03/15 02:19:35;;;;;;;1.63;0.85;;;;;;;;;;5028025;28;20037;-60
2021/03/15 02:22:13;;;;;;;8.38;1.52;;;;;;;;;;5025145;28;20045;-59
2021/03/15 02:24:42;;;;;;;4.18;1.13;;;;;;;;;;5026442;28;20034;-61
2021/03/15 02:27:26;;;;;;;7.20;1.15;;;;;;;;;;5044799;28;20087;-59
2021/03/15 02:30:06;;;;;;;3.03;0.90;;;;;;;;;;5042985;28;20118;-60
2021/03/15 02:32:50;;;;;;;5.43;1.13;;;;;;;;;;5025831;28;20048;-60
2021/03/15 02:35:18;;;;;;;7.05;1.42;;;;;;;;;;5002340;28;20102;-60
2021/03/15 02:37:45;;;;;;;4.65;0.98;;;;;;;;;;5027746;28;20041;-59
2021/03/15 02:40:14;;;;;;;5.28;1.27;;;;;;;;;;5009950;28;20389;-61
2021/03/15 02:42:42;;;;;;;5.20;1.10;;;;;;;;;;5025074;28;20045;-60
2021/03/15 02:45:09;;;;;;;5.88;1.23;;;;;;;;;;5037015;28;20033;-59
2021/03/15 02:47:39;;;;;;;3.67;1.25;;;;;;;;;;5040330;28;20055;-59
2021/03/15 02:50:06;;;;;;;3.92;1.05;;;;;;;;;;5045762;28;20037;-58
2021/03/15 02:52:35;;;;;;;3.13;1.20;;;;;;;;;;5026662;28;20047;-59
2021/03/15 02:55:05;;;;;;;4.07;1.27;;;;;;;;;;5026697;28;20086;-59
2021/03/15 02:57:32;;;;;;;2.67;1.08;;;;;;;;;;5036594;28;20067;-58
2021/03/15 02:59:58;;;;;;;3.50;1.05;;;;;;;;;;5046201;28;20048;-60
2021/03/15 03:02:25;;;;;;;2.00;1.10;;;;;;;;;;5021711;28;20053;-59
2021/03/15 03:04:51;;;;;;;2.22;1.00;;;;;;;;;;5012936;28;20053;-59
2021/03/15 03:07:17;;;;;;;3.28;1.50;;;;;;;;;;5018183;28;20037;-60
2021/03/15 03:09:45;;;;;;;3.88;1.30;;;;;;;;;;5042746;28;20045;-58
2021/03/15 03:12:12;;;;;;;6.85;1.42;;;;;;;;;;5031813;28;20062;-59
2021/03/15 03:14:39;;;;;;;3.50;1.40;;;;;;;;;;5023007;28;20065;-59
2021/03/15 03:17:06;;;;;;;4.38;1.55;;;;;;;;;;5022670;28;20397;-59
2021/03/15 03:19:33;;;;;;;4.18;1.70;;;;;;;;;;5042264;28;20033;-59
2021/03/15 03:22:02;;;;;;;3.67;1.50;;;;;;;;;;5039138;28;20052;-60
2021/03/15 03:24:30;;;;;;;6.57;1.58;;;;;;;;;;5040524;28;20043;-60
2021/03/15 03:26:57;;;;;;;5.18;1.52;;;;;;;;;;5042248;28;20041;-60
2021/03/15 03:29:24;;;;;;;3.38;1.67;;;;;;;;;;5018463;28;20062;-60
2021/03/15 03:31:51;;;;;;;4.35;1.83;;;;;;;;;;5022173;28;20091;-60
2021/03/15 03:34:17;;;;;;;9.15;2.65;;;;;;;;;;5019688;28;20329;-60
2021/03/15 03:36:43;;;;;;;9.20;2.22;;;;;;;;;;5023462;28;20081;-60
2021/03/15 03:39:11;;;;;;;6.00;2.10;;;;;;;;;;5032664;28;20053;-60
2021/03/15 03:41:38;;;;;;;6.20;2.25;;;;;;;;;;5041614;28;20061;-60
2021/03/15 03:44:05;;;;;;;8.80;2.60;;;;;;;;;;5035520;28;20037;-60
2021/03/15 03:46:31;;;;;;;8.90;2.67;;;;;;;;;;5022755;28;20037;-60
2021/03/15 03:48:57;;;;;;;6.75;2.45;;;;;;;;;;5019348;28;20044;-60
2021/03/15 03:51:27;;;;;;;6.93;2.63;;;;;;;;;;5023131;28;20045;-59
2021/03/15 03:53:57;;;;;;;7.75;2.72;;;;;;;;;;5021203;28;20044;-59
2021/03/15 03:56:24;;;;;;;9.52;2.40;;;;;;;;;;5023250;28;20053;-60
2021/03/15 03:58:52;;;;;;;6.82;2.40;;;;;;;;;;5023201;28;20041;-59
2021/03/15 04:01:22;;;;;;;10.20;2.37;;;;;;;;;;5043126;28;20122;-59
2021/03/15 04:03:52;;;;;;;8.52;2.40;;;;;;;;;;5039401;28;21558;-60
2021/03/15 04:06:18;;;;;;;7.15;2.25;;;;;;;;;;5041114;28;20040;-58
2021/03/15 04:08:46;;;;;;;6.47;2.20;;;;;;;;;;5037967;28;20029;-60
2021/03/15 04:11:13;;;;;;;12.15;2.42;;;;;;;;;;5001548;28;20053;-58
2021/03/15 04:13:40;;;;;;;12.52;2.63;;;;;;;;;;5002626;28;20046;-59
2021/03/15 04:16:07;;;;;;;8.25;2.13;;;;;;;;;;5033678;28;20041;-60
2021/03/15 04:18:36;;;;;;;12.25;2.67;;;;;;;;;;5040721;28;20077;-59
2021/03/15 04:21:04;;;;;;;5.05;1.95;;;;;;;;;;5017814;28;20053;-59
2021/03/15 04:23:30;;;;;;;9.60;2.47;;;;;;;;;;5000998;28;20060;-59
2021/03/15 04:25:57;;;;;;;5.43;1.65;;;;;;;;;;5011831;28;20034;-60
2021/03/15 04:28:24;;;;;;;7.18;1.92;;;;;;;;;;5022358;28;20041;-61
2021/03/15 04:30:50;;;;;;;6.97;1.95;;;;;;;;;;5018988;28;20122;-59
2021/03/15 04:33:17;;;;;;;6.03;1.83;;;;;;;;;;5021149;28;20052;-58
2021/03/15 04:35:44;;;;;;;9.02;2.00;;;;;;;;;;5020008;28;20468;-59
2021/03/15 04:38:11;;;;;;;6.13;1.75;;;;;;;;;;5020667;28;20045;-59
2021/03/15 04:40:38;;;;;;;5.07;1.70;;;;;;;;;;5020853;28;20077;-59
2021/03/15 04:43:05;;;;;;;6.95;1.90;;;;;;;;;;5020205;28;20409;-60
2021/03/15 04:45:32;;;;;;;4.20;1.65;;;;;;;;;;5029522;28;20049;-60
2021/03/15 04:48:00;;;;;;;9.77;1.90;;;;;;;;;;5021485;28;20179;-60
2021/03/15 04:50:26;;;;;;;6.90;1.85;;;;;;;;;;5018786;28;20037;-60
2021/03/15 04:52:53;;;;;;;6.45;1.77;;;;;;;;;;5021294;28;20049;-60
2021/03/15 04:55:19;;;;;;;10.23;2.40;;;;;;;;;;5020198;28;20038;-60
2021/03/15 04:57:47;;;;;;;6.03;1.75;;;;;;;;;;5018909;28;20048;-59
2021/03/15 05:00:16;;;;;;;11.43;2.08;;;;;;;;;;5021239;28;20051;-60
2021/03/15 05:02:43;;;;;;;4.60;1.85;;;;;;;;;;5012508;28;20053;-60
2021/03/15 05:05:11;;;;;;;9.88;2.15;;;;;;;;;;5031961;28;20033;-61
2021/03/15 05:07:39;;;;;;;8.73;1.95;;;;;;;;;;5019284;28;20064;-60
2021/03/15 05:10:07;;;;;;;12.57;1.55;;;;;;;;;;5004026;28;20034;-60
2021/03/15 05:12:33;;;;;;;4.40;1.55;;;;;;;;;;5012827;28;20057;-59
2021/03/15 05:15:00;;;;;;;7.45;1.80;;;;;;;;;;5024885;28;20103;-59
2021/03/15 05:17:26;;;;;;;7.95;2.03;;;;;;;;;;5048217;28;20229;-60
2021/03/15 05:19:52;;;;;;;7.00;2.00;;;;;;;;;;5044179;28;20086;-60
2021/03/15 05:22:18;;;;;;;7.85;2.08;;;;;;;;;;5031982;28;20045;-58
2021/03/15 05:24:44;;;;;;;6.40;1.70;;;;;;;;;;5004406;28;20067;-60
2021/03/15 05:27:11;;;;;;;7.72;1.77;;;;;;;;;;5008770;28;20093;-60
2021/03/15 05:29:38;;;;;;;6.35;1.58;;;;;;;;;;5062272;28;20355;-59
2021/03/15 05:32:07;;;;;;;7.22;1.83;;;;;;;;;;5039433;28;20052;-59
2021/03/15 05:34:33;;;;;;;;;;;;;;;;;;5024816;28;20033;-59
2021/03/15 05:36:59;;;;;;;8.50;1.42;;;;;;;;;;5022777;28;19931;-60
2021/03/15 05:39:28;;;;;;;7.20;2.00;;;;;;;;;;5039880;28;20056;-60
2021/03/15 05:42:04;;;;;;;3.05;1.60;;;;;;;;;;5043679;28;20051;-59
2021/03/15 05:44:46;;;;;;;6.43;1.67;;;;;;;;;;5017072;28;20044;-60
2021/03/15 05:47:33;;;;;;;6.90;1.52;;;;;;;;;;5043259;28;20515;-59
2021/03/15 05:50:18;;;;;;;8.73;2.10;;;;;;;;;;5044781;28;20045;-59
2021/03/15 05:52:46;;;;;;;8.07;2.00;;;;;;;;;;5044344;28;20052;-58
2021/03/15 05:55:12;;;;;;;;;;;;;;;;;;5022130;28;20042;-59
2021/03/15 05:57:55;;;;;;;6.28;1.77;;;;;;;;;;5005604;28;19917;-59
2021/03/15 06:00:26;;;;;;;7.18;2.10;;;;;;;;;;5042704;28;20342;-60
2021/03/15 06:02:59;;;;;;;8.70;1.98;;;;;;;;;;5046017;28;20040;-58
2021/03/15 06:05:28;;;;;;;6.68;1.80;;;;;;;;;;5039668;28;20060;-60
2021/03/15 06:08:02;;;;;;;8.02;2.13;;;;;;;;;;5043278;28;20045;-59
2021/03/15 06:10:32;;;;;;;4.40;1.67;;;;;;;;;;5040814;28;20056;-59
2021/03/15 06:13:01;;;;;;;5.55;1.60;;;;;;;;;;5043443;28;20100;-60
2021/03/15 06:15:33;;;;;;;5.95;1.60;;;;;;;;;;5024742;28;20093;-60
2021/03/15 06:18:03;;;;;;;10.07;2.78;;;;;;;;;;5022516;28;20060;-60
2021/03/15 06:20:29;;;;;;;10.70;2.83;;;;;;;;;;5033719;28;20134;-60
2021/03/15 06:22:55;;;;;;;5.63;2.00;;;;;;;;;;5025238;28;20053;-61
2021/03/15 06:25:21;;;;;;;5.75;1.80;;;;;;;;;;5008453;28;20053;-61
2021/03/15 06:27:48;;;;;;;5.45;1.67;;;;;;;;;;5008813;28;20057;-60
2021/03/15 06:30:14;;;;;;;8.63;2.17;;;;;;;;;;5005457;28;20053;-60
2021/03/15 06:32:41;;;;;;;5.60;1.95;;;;;;;;;;5012864;28;20034;-60
2021/03/15 06:35:08;;;;;;;8.88;1.80;;;;;;;;;;5008067;28;20087;-59
2021/03/15 06:37:35;;;;;;;7.85;2.00;;;;;;;;;;5017082;28;20049;-60
2021/03/15 06:40:01;;;;;;;5.15;2.03;;;;;;;;;;5015984;28;20046;-60
2021/03/15 06:42:28;;;;;;;10.25;1.98;;;;;;;;;;5009458;28;20086;-60
2021/03/15 06:44:54;;;;;;;16.63;4.25;;;;;;;;;;5011354;28;20104;-58
2021/03/15 06:47:21;;;;;;;12.13;4.82;;;;;;;;;;5012771;28;20050;-60
2021/03/15 06:49:48;;;;;;;10.43;3.33;;;;;;;;;;5010293;28;20058;-60
2021/03/15 06:52:14;;;;;;;6.10;2.15;;;;;;;;;;5008195;28;20041;-58
2021/03/15 06:54:40;;;;;;;11.13;2.10;;;;;;;;;;5010102;28;20041;-59
2021/03/15 06:57:20;;;;;;;9.52;2.58;;;;;;;;;;5007725;28;20038;-59
2021/03/15 06:59:47;;;;;;;6.95;2.00;;;;;;;;;;5006307;28;20049;-59
2021/03/15 07:02:18;;;;;;;5.95;1.83;;;;;;;;;;5011583;28;20068;-60
2021/03/15 07:04:44;;;;;;;7.05;1.88;;;;;;;;;;5005747;28;20077;-59
2021/03/15 07:07:11;;;;;;;6.00;1.88;;;;;;;;;;5008331;28;20049;-58
2021/03/15 07:09:37;;;;;;;9.40;2.20;;;;;;;;;;5007630;28;20057;-59
2021/03/15 07:12:03;;;;;;;7.07;1.67;;;;;;;;;;5005800;28;20044;-60
2021/03/15 07:14:30;;;;;;;6.72;2.15;;;;;;;;;;5009384;28;20045;-60
2021/03/15 07:16:56;;;;;;;12.10;1.77;;;;;;;;;;5008987;28;20098;-60
2021/03/15 07:19:23;;;;;;;5.60;1.40;;;;;;;;;;5017690;28;20066;-60
2021/03/15 07:21:49;;;;;;;13.50;1.95;;;;;;;;;;5005746;28;20042;-59
2021/03/15 07:24:16;;;;;;;18.15;2.30;;;;;;;;;;5007315;28;20034;-60
2021/03/15 07:26:44;;;;;;;11.98;2.03;;;;;;;;;;5008709;28;20065;-60
2021/03/15 07:29:11;;;;;;;16.73;2.20;;;;;;;;;;5011614;28;20034;-60
2021/03/15 07:31:37;;;;;;;9.02;2.90;;;;;;;;;;5008472;28;20045;-59
2021/03/15 07:34:17;;;;;;;11.25;2.45;;;;;;;;;;5004924;28;20042;-60
2021/03/15 07:36:45;;;;;;;10.32;1.98;;;;;;;;;;4999346;28;20103;-59
2021/03/15 07:39:12;;;;;;;7.80;1.38;;;;;;;;;;5037343;28;20041;-59
2021/03/15 07:41:39;;;;;;;22.38;2.67;;;;;;;;;;5042277;28;20052;-59
2021/03/15 07:44:14;;;;;;;9.40;2.20;;;;;;;;;;5024490;28;20053;-59
2021/03/15 07:46:42;;;;;;;13.77;1.58;;;;;;;;;;5040747;28;20063;-60
2021/03/15 07:49:19;;;;;;;9.82;1.70;;;;;;;;;;5037121;28;20038;-61
2021/03/15 07:51:50;;;;;;;12.07;1.70;;;;;;;;;;5041525;28;20025;-61
2021/03/15 07:54:22;;;;;;;8.35;1.80;;;;;;;;;;5022550;28;20097;-60
2021/03/15 07:57:09;;;;;;;12.65;1.70;;;;;;;;;;5022895;28;20144;-60
2021/03/15 07:59:37;;;;;;;9.77;1.35;;;;;;;;;;5005742;28;20053;-59
2021/03/15 08:02:04;;;;;;;11.73;1.67;;;;;;;;;;5000485;28;20061;-60
2021/03/15 08:04:30;;;;;;;14.05;1.90;;;;;;;;;;5013154;28;20160;-60
2021/03/15 08:06:56;;;;;;;9.45;1.48;;;;;;;;;;5021980;28;20037;-61
2021/03/15 08:09:22;;;;;;;9.63;1.60;;;;;;;;;;5029338;28;20045;-59
2021/03/15 08:11:50;;;;;;;21.70;1.50;;;;;;;;;;5041400;28;20043;-60
2021/03/15 08:14:16;;;;;;;17.42;1.73;;;;;;;;;;5036532;28;20041;-59
2021/03/15 08:16:45;;;;;;;8.85;1.10;;;;;;;;;;5041448;28;20077;-61
2021/03/15 08:19:12;;;;;;;11.15;1.98;;;;;;;;;;5032182;28;20057;-59
2021/03/15 08:21:38;;;;;;;14.27;1.40;;;;;;;;;;5023117;28;20098;-61
2021/03/15 08:24:07;;;;;;;7.72;1.40;;;;;;;;;;5020219;28;20052;-60
2021/03/15 08:26:33;;;;;;;12.40;1.60;;;;;;;;;;5020702;28;20038;-59
2021/03/15 08:29:04;;;;;;;13.60;1.38;;;;;;;;;;5018744;28;20044;-59
2021/03/15 08:31:30;;;;;;;17.45;2.30;;;;;;;;;;5021287;28;20603;-61
2021/03/15 08:33:56;;;;;;;10.93;1.80;;;;;;;;;;5014236;28;20057;-60
2021/03/15 08:36:22;;;;;;;5.43;0.70;;;;;;;;;;5036267;28;20160;-61
2021/03/15 08:38:48;;;;;;;14.00;1.42;;;;;;;;;;5040136;28;20041;-59
2021/03/15 08:41:21;;;;;;;9.27;1.35;;;;;;;;;;5022413;28;20053;-59
2021/03/15 08:43:48;;;;;;;10.27;1.73;;;;;;;;;;5002190;28;20143;-60
2021/03/15 08:46:17;;;;;;;8.45;1.25;;;;;;;;;;5039640;28;20046;-59
2021/03/15 08:48:56;;;;;;;13.68;1.23;;;;;;;;;;5021145;28;20045;-60
2021/03/15 08:51:46;;;;;;;7.63;1.20;;;;;;;;;;5030080;28;20038;-60
2021/03/15 08:54:14;;;;;;;15.95;1.67;;;;;;;;;;5019249;28;20059;-60
2021/03/15 08:56:42;;;;;;;13.23;2.20;;;;;;;;;;5033188;28;20045;-61
2021/03/15 08:59:09;;;;;;;5.13;0.95;;;;;;;;;;5020907;28;20038;-60
2021/03/15 09:01:50;;;;;;;8.00;1.10;;;;;;;;;;5018132;28;21400;-60
2021/03/15 09:04:45;;;;;;;10.02;1.83;;;;;;;;;;5018991;28;20049;-59
2021/03/15 09:07:30;;;;;;;4.93;0.70;;;;;;;;;;5036077;28;20104;-59
2021/03/15 09:09:57;;;;;;;17.90;1.40;;;;;;;;;;5042014;28;20056;-59
2021/03/15 09:12:26;;;;;;;8.88;0.80;;;;;;;;;;5018667;28;20052;-60
2021/03/15 09:14:56;;;;;;;6.57;1.10;;;;;;;;;;5042348;28;20049;-60
2021/03/15 09:17:33;;;;;;;6.82;1.25;;;;;;;;;;5020952;28;20040;-61
2021/03/15 09:20:15;;;;;;;6.45;0.77;;;;;;;;;;5015808;28;20060;-61
2021/03/15 09:22:41;;;;;;;4.97;1.00;;;;;;;;;;5020348;28;20045;-61
2021/03/15 09:25:17;;;;;;;9.65;0.70;;;;;;;;;;5045662;28;20041;-61
2021/03/15 09:27:44;;;;;;;8.27;0.70;;;;;;;;;;5027791;28;20067;-61
2021/03/15 09:30:15;;;;;;;11.27;1.02;;;;;;;;;;5029642;28;20088;-60
2021/03/15 09:32:42;;;;;;;2.08;0.75;;;;;;;;;;5043423;28;20048;-60
2021/03/15 09:35:18;;;;;;;6.93;0.70;;;;;;;;;;5029697;28;20052;-60
2021/03/15 09:37:49;;;;;;;13.98;0.82;;;;;;;;;;5026416;28;20045;-61
2021/03/15 09:40:16;;;;;;;6.45;0.90;;;;;;;;;;5030310;28;20045;-61
2021/03/15 09:42:43;;;;;;;5.93;0.82;;;;;;;;;;5032765;28;20056;-61
2021/03/15 09:45:11;;;;;;;9.18;0.80;;;;;;;;;;5039815;28;20130;-60
2021/03/15 09:47:38;;;;;;;4.75;0.52;;;;;;;;;;5047047;28;20033;-61
2021/03/15 09:50:15;;;;;;;7.43;0.82;;;;;;;;;;5028706;28;20119;-61
2021/03/15 09:52:41;;;;;;;7.07;0.80;;;;;;;;;;5032301;28;20041;-61
2021/03/15 09:55:08;;;;;;;7.18;0.98;;;;;;;;;;5050428;28;20032;-60
2021/03/15 09:57:35;;;;;;;9.07;1.20;;;;;;;;;;5043519;28;20029;-60
2021/03/15 10:00:05;;;;;;;9.52;1.02;;;;;;;;;;5047747;28;20521;-61
2021/03/15 10:02:31;;;;;;;3.78;0.60;;;;;;;;;;5017194;28;20085;-61
2021/03/15 10:04:57;;;;;;;11.30;0.90;;;;;;;;;;5029523;28;20056;-61
2021/03/15 10:07:24;;;;;;;6.32;0.88;;;;;;;;;;5030964;28;20045;-60
2021/03/15 10:09:53;;;;;;;3.97;0.82;;;;;;;;;;5026665;28;20041;-62
2021/03/15 10:12:20;;;;;;;8.90;1.05;;;;;;;;;;5043347;28;20055;-59
2021/03/15 10:14:58;;;;;;;5.05;0.98;;;;;;;;;;5013707;28;20042;-60
2021/03/15 10:17:24;;;;;;;2.83;0.50;;;;;;;;;;5010525;28;20038;-61
2021/03/15 10:19:50;;;;;;;10.57;1.33;;;;;;;;;;5033907;28;20125;-61
2021/03/15 10:22:17;;;;;;;8.20;1.13;;;;;;;;;;5050297;28;20037;-60
2021/03/15 10:24:44;;;;;;;5.10;0.80;;;;;;;;;;5034298;28;20049;-60
2021/03/15 10:27:18;;;;;;;4.45;0.82;;;;;;;;;;5028377;28;20103;-61
2021/03/15 10:29:50;;;;;;;11.38;1.20;;;;;;;;;;5026014;28;20044;-61
2021/03/15 10:32:19;;;;;;;8.32;0.95;;;;;;;;;;5028601;28;20057;-61
2021/03/15 10:34:50;;;;;;;3.92;0.70;;;;;;;;;;5025921;28;20065;-62
2021/03/15 10:37:22;;;;;;;9.02;1.10;;;;;;;;;;5026023;28;20033;-61
2021/03/15 10:39:48;;;;;;;9.25;0.90;;;;;;;;;;5029508;28;20032;-60
2021/03/15 10:42:16;;;;;;;10.30;1.10;;;;;;;;;;5045481;28;20123;-61
2021/03/15 10:44:42;;;;;;;7.55;0.93;;;;;;;;;;5022906;28;20038;-60
2021/03/15 10:47:13;;;;;;;4.93;0.90;;;;;;;;;;5006555;28;20049;-61
2021/03/15 10:49:39;;;;;;;11.48;0.77;;;;;;;;;;5017378;28;20055;-60
2021/03/15 10:52:07;;;;;;;11.38;1.02;;;;;;;;;;5010479;28;20120;-61
2021/03/15 10:54:35;;;;;;;11.00;1.40;;;;;;;;;;5004199;28;20042;-60
2021/03/15 10:57:08;;;;;;;6.13;1.02;;;;;;;;;;5007773;28;20056;-61
2021/03/15 10:59:34;;;;;;;8.85;0.95;;;;;;;;;;5004784;28;20057;-61
2021/03/15 11:02:00;;;;;;;11.35;1.35;;;;;;;;;;5039012;28;20041;-60
2021/03/15 11:04:32;;;;;;;4.50;0.80;;;;;;;;;;5025423;28;20041;-61
2021/03/15 11:06:58;;;;;;;11.75;0.95;;;;;;;;;;5017475;28;20088;-61
2021/03/15 11:09:27;;;;;;;13.40;1.00;;;;;;;;;;5024941;28;20171;-61
2021/03/15 11:11:54;;;;;;;11.45;1.10;;;;;;;;;;5020555;28;20238;-61
2021/03/15 11:14:20;;;;;;;8.27;0.90;;;;;;;;;;5024855;28;20056;-61
2021/03/15 11:16:46;;;;;;;9.85;0.88;;;;;;;;;;5019566;28;20029;-61
2021/03/15 11:19:15;;;;;;;9.68;1.00;;;;;;;;;;5011730;28;20064;-60
2021/03/15 11:21:44;;;;;;;3.08;0.70;;;;;;;;;;5010844;28;20053;-60
2021/03/15 11:24:13;;;;;;;11.55;1.08;;;;;;;;;;4997136;28;20435;-61
2021/03/15 11:26:45;;;;;;;8.40;1.10;;;;;;;;;;5013747;28;20038;-61
2021/03/15 11:29:12;;;;;;;8.20;1.08;;;;;;;;;;5024542;28;20407;-61
2021/03/15 11:31:48;;;;;;;8.18;1.05;;;;;;;;;;5004763;28;20638;-60
2021/03/15 11:34:16;;;;;;;6.50;2.05;;;;;;;;;;5000094;28;20045;-61
2021/03/15 11:36:46;;;;;;;10.15;1.23;;;;;;;;;;5011458;28;20041;-60
2021/03/15 11:39:12;;;;;;;10.27;1.00;;;;;;;;;;5019160;28;20070;-61
2021/03/15 11:41:39;;;;;;;9.05;1.40;;;;;;;;;;5016991;28;20135;-61
2021/03/15 11:44:05;;;;;;;7.60;1.02;;;;;;;;;;5011651;28;20055;-61
2021/03/15 11:46:33;;;;;;;4.80;0.77;;;;;;;;;;4996506;28;20073;-61
2021/03/15 11:48:59;;;;;;;8.13;1.02;;;;;;;;;;5007587;28;20411;-61
2021/03/15 11:51:25;;;;;;;10.02;0.75;;;;;;;;;;5009743;28;20030;-61
2021/03/15 11:53:52;;;;;;;8.48;1.05;;;;;;;;;;5000635;28;20038;-60
2021/03/15 11:56:20;;;;;;;9.02;1.40;;;;;;;;;;5014191;28;20048;-61
2021/03/15 11:58:47;;;;;;;9.77;1.15;;;;;;;;;;5015712;28;20049;-62
2021/03/15 12:01:13;;;;;;;8.35;1.15;;;;;;;;;;5012527;28;20065;-61
2021/03/15 12:03:39;;;;;;;10.82;1.45;;;;;;;;;;4999629;28;20036;-60
2021/03/15 12:06:06;;;;;;;12.00;1.42;;;;;;;;;;5015085;28;20130;-61
2021/03/15 12:08:32;;;;;;;5.68;0.93;;;;;;;;;;5018829;28;20041;-62
2021/03/15 12:10:59;;;;;;;10.57;1.48;;;;;;;;;;5005110;28;20065;-61
2021/03/15 12:13:25;;;;;;;5.88;0.70;;;;;;;;;;5016786;28;20045;-61
2021/03/15 12:15:51;;;;;;;14.68;2.03;;;;;;;;;;5044397;28;20047;-61
2021/03/15 12:18:18;;;;;;;12.38;1.73;;;;;;;;;;5053962;28;20053;-61
2021/03/15 12:20:44;;;;;;;7.65;1.52;;;;;;;;;;5024213;28;20040;-62
2021/03/15 12:23:10;;;;;;;8.00;1.33;;;;;;;;;;5039058;28;20049;-61
2021/03/15 12:25:37;;;;;;;12.68;1.27;;;;;;;;;;5025880;28;20041;-61
2021/03/15 12:28:04;;;;;;;9.73;1.17;;;;;;;;;;5024704;28;20158;-62
2021/03/15 12:30:31;;;;;;;6.85;0.88;;;;;;;;;;5038910;28;20070;-61
2021/03/15 12:32:59;;;;;;;6.10;1.40;;;;;;;;;;5044609;28;20040;-61
2021/03/15 12:35:25;;;;;;;12.80;1.15;;;;;;;;;;5042755;28;20034;-62
2021/03/15 12:37:52;;;;;;;10.48;1.23;;;;;;;;;;5024885;28;20029;-62
2021/03/15 12:40:18;;;;;;;3.38;0.65;;;;;;;;;;5033618;28;20052;-62
2021/03/15 12:42:46;;;;;;;3.97;0.85;;;;;;;;;;5041857;28;20098;-61
2021/03/15 12:45:14;;;;;;;8.60;1.70;;;;;;;;;;5031869;28;20080;-61
2021/03/15 12:47:40;;;;;;;8.25;0.88;;;;;;;;;;5045018;28;20111;-61
2021/03/15 12:50:09;;;;;;;9.52;1.92;;;;;;;;;;5030839;28;20135;-60
2021/03/15 12:52:35;;;;;;;7.28;1.02;;;;;;;;;;5025027;28;20428;-62
2021/03/15 12:55:05;;;;;;;14.68;1.45;;;;;;;;;;5021677;28;20049;-61
2021/03/15 12:57:32;;;;;;;14.35;1.50;;;;;;;;;;5042377;28;20049;-61
2021/03/15 12:59:58;;;;;;;13.40;1.55;;;;;;;;;;5041673;28;20045;-61
2021/03/15 13:02:26;;;;;;;9.88;1.02;;;;;;;;;;5043844;28;20029;-62
2021/03/15 13:04:52;;;;;;;6.97;0.82;;;;;;;;;;5033678;28;20130;-61
2021/03/15 13:07:18;;;;;;;3.95;0.68;;;;;;;;;;5000210;28;20078;-61
2021/03/15 13:09:44;;;;;;;7.45;0.82;;;;;;;;;;5000503;28;20102;-61
2021/03/15 13:12:10;;;;;;;12.30;2.17;;;;;;;;;;5017360;28;20057;-61
2021/03/15 13:14:36;;;;;;;4.68;0.73;;;;;;;;;;5020507;28;20127;-61
2021/03/15 13:17:03;;;;;;;8.77;1.70;;;;;;;;;;5017755;28;20061;-62
2021/03/15 13:19:30;;;;;;;7.15;1.00;;;;;;;;;;5020556;28;20056;-61
2021/03/15 13:21:56;;;;;;;5.47;1.13;;;;;;;;;;5019820;28;20045;-61
2021/03/15 13:24:22;;;;;;;9.27;1.00;;;;;;;;;;5022011;28;20050;-61
2021/03/15 13:26:48;;;;;;;12.05;1.48;;;;;;;;;;5026907;28;20163;-61
2021/03/15 13:29:14;;;;;;;8.45;0.95;;;;;;;;;;5041490;28;20061;-61
2021/03/15 13:31:42;;;;;;;9.70;1.30;;;;;;;;;;5028838;28;20037;-61
2021/03/15 13:34:08;;;;;;;5.87;1.07;;;;;;;;;;5021787;28;20050;-61
2021/03/15 13:36:35;;;;;;;11.25;1.27;;;;;;;;;;5018429;28;20041;-60
2021/03/15 13:39:01;;;;;;;6.22;1.00;;;;;;;;;;5018626;28;20057;-61
2021/03/15 13:41:27;;;;;;;11.85;0.95;;;;;;;;;;5016589;28;20061;-61
2021/03/15 13:43:55;;;;;;;6.35;1.02;;;;;;;;;;5008220;28;20101;-61
2021/03/15 13:46:21;;;;;;;10.77;0.98;;;;;;;;;;4998876;28;20429;-61
2021/03/15 13:48:47;;;;;;;3.03;0.40;;;;;;;;;;5020837;28;20058;-61
2021/03/15 13:51:13;;;;;;;4.88;0.90;;;;;;;;;;5019553;28;20048;-61
2021/03/15 13:53:40;;;;;;;8.85;1.10;;;;;;;;;;5011320;28;20033;-61
2021/03/15 13:56:06;;;;;;;8.88;1.13;;;;;;;;;;5040239;28;20033;-61
2021/03/15 13:58:34;;;;;;;14.23;1.75;;;;;;;;;;5017281;28;20110;-60
2021/03/15 14:01:00;;;;;;;9.13;1.37;;;;;;;;;;5019112;28;20042;-61
2021/03/15 14:03:27;;;;;;;12.02;1.35;;;;;;;;;;5028652;28;20057;-61
2021/03/15 14:05:58;;;;;;;17.08;1.65;;;;;;;;;;5022744;28;20038;-60
2021/03/15 14:08:24;;;;;;;13.75;1.30;;;;;;;;;;5016248;28;20034;-61
2021/03/15 14:10:54;;;;;;;7.43;0.95;;;;;;;;;;5024288;28;20085;-60
2021/03/15 14:13:20;;;;;;;11.52;2.17;;;;;;;;;;5020053;28;20034;-61
2021/03/15 14:15:46;;;;;;;12.25;1.27;;;;;;;;;;5024539;28;20042;-61
2021/03/15 14:18:12;;;;;;;15.57;1.67;;;;;;;;;;5020937;28;20065;-61
2021/03/15 14:20:38;;;;;;;12.57;1.33;;;;;;;;;;5022775;28;20057;-61
2021/03/15 14:23:05;;;;;;;9.93;1.88;;;;;;;;;;5023196;28;20069;-61
2021/03/15 14:25:31;;;;;;;16.55;1.60;;;;;;;;;;5043864;28;20070;-61
2021/03/15 14:27:58;;;;;;;13.02;1.40;;;;;;;;;;5038663;28;20049;-60
2021/03/15 14:30:24;;;;;;;5.82;1.17;;;;;;;;;;5017207;28;20057;-62
2021/03/15 14:32:50;;;;;;;10.90;1.55;;;;;;;;;;5016145;28;20123;-61
2021/03/15 14:35:16;;;;;;;8.73;1.10;;;;;;;;;;5008078;28;20057;-60
2021/03/15 14:37:46;;;;;;;15.73;2.30;;;;;;;;;;5030551;28;20047;-61
2021/03/15 14:40:12;;;;;;;14.68;1.90;;;;;;;;;;5022424;28;20038;-61
2021/03/15 14:42:40;;;;;;;15.07;1.75;;;;;;;;;;5021771;28;20490;-61
2021/03/15 14:45:07;;;;;;;15.27;1.55;;;;;;;;;;5023896;28;20048;-61
2021/03/15 14:47:34;;;;;;;13.98;1.92;;;;;;;;;;5043143;28;20065;-63